sensor_id;sensor_type;location;lat;lon;timestamp;pressure;altitude;pressure_sealevel;temperature;humidity
76126;BME280;65174;48.138;21.002;2023-07-20T00:00:07;64582.16;;;-140.13;100.00
76126;BME280;65174;48.138;21.002;2023-07-20T00:03:19;64582.16;;;-140.13;100.00
76126;BME280;65174;48.138;21.002;2023-07-20T00:06:25;98703.13;;;19.37;90.32
76126;BME280;65174;48.138;21.002;2023-07-20T00:09:29;98708.38;;;19.21;90.42
76126;BME280;65174;48.138;21.002;2023-07-20T00:12:31;98714.63;;;19.20;91.56
76126;BME280;65174;48.138;21.002;2023-07-20T00:15:33;98718.25;;;19.50;89.93
76126;BME280;65174;48.138;21.002;2023-07-20T00:18:37;98721.66;;;19.50;89.85
76126;BME280;65174;48.138;21.002;2023-07-20T00:21:39;98724.72;;;19.62;88.64
76126;BME280;65174;48.138;21.002;2023-07-20T00:24:43;98729.88;;;19.47;89.43
76126;BME280;65174;48.138;21.002;2023-07-20T00:28:09;98727.13;;;19.41;89.20
76126;BME280;65174;48.138;21.002;2023-07-20T00:31:11;98723.69;;;19.32;89.57
76126;BME280;65174;48.138;21.002;2023-07-20T00:34:13;98730.66;;;19.09;90.36
76126;BME280;65174;48.138;21.002;2023-07-20T00:37:15;98732.13;;;19.12;91.11
76126;BME280;65174;48.138;21.002;2023-07-20T00:40:18;98723.81;;;19.08;90.87
76126;BME280;65174;48.138;21.002;2023-07-20T00:43:23;98712.47;;;18.85;91.22
76126;BME280;65174;48.138;21.002;2023-07-20T00:46:26;98700.38;;;18.76;91.49
76126;BME280;65174;48.138;21.002;2023-07-20T00:49:29;98694.69;;;18.72;90.97
76126;BME280;65174;48.138;21.002;2023-07-20T00:52:32;98697.78;;;18.76;90.68
76126;BME280;65174;48.138;21.002;2023-07-20T00:55:35;98699.06;;;18.80;90.77
76126;BME280;65174;48.138;21.002;2023-07-20T00:58:37;98696.66;;;18.54;91.85
76126;BME280;65174;48.138;21.002;2023-07-20T01:05:46;98727.19;;;18.54;92.80
76126;BME280;65174;48.138;21.002;2023-07-20T01:09:13;98726.88;;;18.33;94.40
76126;BME280;65174;48.138;21.002;2023-07-20T01:12:41;98725.88;;;18.34;95.08
76126;BME280;65174;48.138;21.002;2023-07-20T01:15:57;98732.59;;;18.36;94.87
76126;BME280;65174;48.138;21.002;2023-07-20T01:19:01;98719.69;;;18.35;94.35
76126;BME280;65174;48.138;21.002;2023-07-20T01:28:57;98728.50;;;18.50;94.58
76126;BME280;65174;48.138;21.002;2023-07-20T01:32:04;98711.84;;;18.26;95.88
76126;BME280;65174;48.138;21.002;2023-07-20T01:35:11;98706.78;;;18.25;97.11
76126;BME280;65174;48.138;21.002;2023-07-20T01:38:16;98701.91;;;18.14;97.28
76126;BME280;65174;48.138;21.002;2023-07-20T01:41:20;98700.94;;;17.99;97.99
76126;BME280;65174;48.138;21.002;2023-07-20T01:44:22;98709.56;;;17.83;100.00
76126;BME280;65174;48.138;21.002;2023-07-20T01:47:27;98716.72;;;17.89;100.00
76126;BME280;65174;48.138;21.002;2023-07-20T01:50:31;98721.13;;;17.89;100.00
76126;BME280;65174;48.138;21.002;2023-07-20T01:53:34;98719.03;;;17.84;100.00
76126;BME280;65174;48.138;21.002;2023-07-20T01:56:36;98716.06;;;17.79;100.00
76126;BME280;65174;48.138;21.002;2023-07-20T01:59:39;98707.28;;;17.80;100.00
76126;BME280;65174;48.138;21.002;2023-07-20T02:02:41;98690.81;;;17.72;100.00
76126;BME280;65174;48.138;21.002;2023-07-20T02:05:45;98693.41;;;17.88;100.00
76126;BME280;65174;48.138;21.002;2023-07-20T02:08:47;98688.19;;;17.88;100.00
76126;BME280;65174;48.138;21.002;2023-07-20T02:11:49;98679.53;;;17.87;100.00
76126;BME280;65174;48.138;21.002;2023-07-20T02:14:55;98692.59;;;17.87;100.00
76126;BME280;65174;48.138;21.002;2023-07-20T02:17:57;98685.09;;;17.92;100.00
76126;BME280;65174;48.138;21.002;2023-07-20T02:20:59;98687.88;;;17.99;100.00
76126;BME280;65174;48.138;21.002;2023-07-20T02:24:19;98697.84;;;18.03;100.00
76126;BME280;65174;48.138;21.002;2023-07-20T02:27:21;98704.34;;;18.32;98.90
76126;BME280;65174;48.138;21.002;2023-07-20T02:30:24;98701.91;;;18.22;99.58
76126;BME280;65174;48.138;21.002;2023-07-20T02:33:26;98716.41;;;18.24;99.89
76126;BME280;65174;48.138;21.002;2023-07-20T02:36:28;98715.28;;;18.19;100.00
76126;BME280;65174;48.138;21.002;2023-07-20T02:39:30;98711.84;;;18.18;100.00
76126;BME280;65174;48.138;21.002;2023-07-20T02:42:32;98711.38;;;18.15;100.00
76126;BME280;65174;48.138;21.002;2023-07-20T02:45:35;98712.69;;;18.11;100.00
76126;BME280;65174;48.138;21.002;2023-07-20T02:48:37;98712.66;;;18.19;100.00
76126;BME280;65174;48.138;21.002;2023-07-20T02:51:39;98713.97;;;18.15;100.00
76126;BME280;65174;48.138;21.002;2023-07-20T02:54:44;98710.88;;;18.19;100.00
76126;BME280;65174;48.138;21.002;2023-07-20T02:57:46;98709.41;;;18.17;100.00
76126;BME280;65174;48.138;21.002;2023-07-20T03:00:48;98713.16;;;18.22;100.00
76126;BME280;65174;48.138;21.002;2023-07-20T03:03:51;98726.84;;;18.24;100.00
76126;BME280;65174;48.138;21.002;2023-07-20T03:06:53;98731.28;;;18.24;100.00
76126;BME280;65174;48.138;21.002;2023-07-20T03:09:56;98731.94;;;18.26;100.00
76126;BME280;65174;48.138;21.002;2023-07-20T03:13:39;98730.78;;;18.20;100.00
76126;BME280;65174;48.138;21.002;2023-07-20T03:16:41;98728.50;;;18.09;100.00
76126;BME280;65174;48.138;21.002;2023-07-20T03:19:44;98739.25;;;18.06;100.00
76126;BME280;65174;48.138;21.002;2023-07-20T03:22:46;98733.03;;;17.99;100.00
76126;BME280;65174;48.138;21.002;2023-07-20T03:25:49;98736.66;;;17.98;100.00
76126;BME280;65174;48.138;21.002;2023-07-20T03:28:51;98734.69;;;17.92;100.00
76126;BME280;65174;48.138;21.002;2023-07-20T03:31:56;98727.63;;;17.77;100.00
76126;BME280;65174;48.138;21.002;2023-07-20T03:34:58;98731.06;;;17.69;100.00
76126;BME280;65174;48.138;21.002;2023-07-20T03:38:00;98739.84;;;17.68;100.00
76126;BME280;65174;48.138;21.002;2023-07-20T03:41:02;98735.16;;;17.72;100.00
76126;BME280;65174;48.138;21.002;2023-07-20T03:44:04;98727.97;;;17.74;100.00
76126;BME280;65174;48.138;21.002;2023-07-20T03:47:06;98730.88;;;17.71;100.00
76126;BME280;65174;48.138;21.002;2023-07-20T03:50:12;98729.44;;;17.76;100.00
76126;BME280;65174;48.138;21.002;2023-07-20T03:53:14;98731.91;;;17.94;100.00
76126;BME280;65174;48.138;21.002;2023-07-20T03:56:17;98722.63;;;18.07;100.00
76126;BME280;65174;48.138;21.002;2023-07-20T03:59:20;98722.47;;;18.25;100.00
76126;BME280;65174;48.138;21.002;2023-07-20T04:02:22;98713.81;;;18.41;100.00
76126;BME280;65174;48.138;21.002;2023-07-20T04:05:27;98718.38;;;18.63;100.00
76126;BME280;65174;48.138;21.002;2023-07-20T04:08:29;98708.56;;;18.81;100.00
76126;BME280;65174;48.138;21.002;2023-07-20T04:11:31;98694.09;;;19.01;100.00
76126;BME280;65174;48.138;21.002;2023-07-20T04:14:33;98695.31;;;19.21;99.10
76126;BME280;65174;48.138;21.002;2023-07-20T04:17:38;98698.53;;;19.39;98.38
76126;BME280;65174;48.138;21.002;2023-07-20T04:21:01;98701.16;;;19.39;96.46
76126;BME280;65174;48.138;21.002;2023-07-20T04:25:38;98692.47;;;19.69;94.90
76126;BME280;65174;48.138;21.002;2023-07-20T04:30:13;98691.53;;;20.08;92.88
76126;BME280;65174;48.138;21.002;2023-07-20T04:34:48;98696.59;;;20.46;88.48
76126;BME280;65174;48.138;21.002;2023-07-20T04:38:35;98695.72;;;20.17;88.40
76126;BME280;65174;48.138;21.002;2023-07-20T04:42:52;98693.44;;;20.14;87.69
76126;BME280;65174;48.138;21.002;2023-07-20T04:45:54;98698.34;;;20.17;87.41
76126;BME280;65174;48.138;21.002;2023-07-20T04:48:57;98695.59;;;20.10;87.99
76126;BME280;65174;48.138;21.002;2023-07-20T04:52:06;98700.88;;;19.79;89.02
76126;BME280;65174;48.138;21.002;2023-07-20T04:55:09;98707.81;;;19.42;91.38
76126;BME280;65174;48.138;21.002;2023-07-20T04:58:12;98713.66;;;19.13;93.94
76126;BME280;65174;48.138;21.002;2023-07-20T05:01:34;98713.97;;;19.18;93.39
76126;BME280;65174;48.138;21.002;2023-07-20T05:05:50;98717.41;;;19.11;93.93
76126;BME280;65174;48.138;21.002;2023-07-20T05:08:52;98724.56;;;19.17;93.68
76126;BME280;65174;48.138;21.002;2023-07-20T05:11:55;98718.91;;;19.52;92.51
76126;BME280;65174;48.138;21.002;2023-07-20T05:15:04;98719.19;;;19.57;92.45
76126;BME280;65174;48.138;21.002;2023-07-20T05:18:06;98712.34;;;19.56;92.49
76126;BME280;65174;48.138;21.002;2023-07-20T05:21:08;98697.16;;;19.51;93.11
76126;BME280;65174;48.138;21.002;2023-07-20T05:24:12;98702.72;;;19.79;92.61
76126;BME280;65174;48.138;21.002;2023-07-20T05:27:35;98695.31;;;20.05;91.24
76126;BME280;65174;48.138;21.002;2023-07-20T05:32:09;98706.72;;;20.49;90.02
76126;BME280;65174;48.138;21.002;2023-07-20T05:36:25;98708.56;;;20.78;88.99
76126;BME280;65174;48.138;21.002;2023-07-20T05:39:28;98714.66;;;21.08;87.68
76126;BME280;65174;48.138;21.002;2023-07-20T05:43:10;98700.69;;;21.22;86.00
76126;BME280;65174;48.138;21.002;2023-07-20T05:46:13;98720.59;;;20.73;87.59
76126;BME280;65174;48.138;21.002;2023-07-20T05:49:35;98708.22;;;20.81;87.50
76126;BME280;65174;48.138;21.002;2023-07-20T05:53:51;98702.63;;;21.49;84.42
76126;BME280;65174;48.138;21.002;2023-07-20T05:57:13;98697.69;;;21.40;84.65
76126;BME280;65174;48.138;21.002;2023-07-20T06:01:29;98694.75;;;21.28;84.58
76126;BME280;65174;48.138;21.002;2023-07-20T06:04:51;98691.97;;;21.51;83.56
76126;BME280;65174;48.138;21.002;2023-07-20T06:08:43;98691.94;;;21.65;82.33
76126;BME280;65174;48.138;21.002;2023-07-20T06:13:23;98694.38;;;21.67;81.14
76126;BME280;65174;48.138;21.002;2023-07-20T06:17:40;98701.22;;;22.03;80.23
76126;BME280;65174;48.138;21.002;2023-07-20T06:20:42;98696.59;;;22.05;79.21
76126;BME280;65174;48.138;21.002;2023-07-20T06:23:46;98707.16;;;21.76;81.29
76126;BME280;65174;48.138;21.002;2023-07-20T06:26:48;98705.88;;;22.29;80.53
76126;BME280;65174;48.138;21.002;2023-07-20T06:31:04;98702.75;;;22.40;78.69
76126;BME280;65174;48.138;21.002;2023-07-20T06:34:08;98701.25;;;22.10;79.32
76126;BME280;65174;48.138;21.002;2023-07-20T06:37:10;98696.53;;;22.75;77.21
76126;BME280;65174;48.138;21.002;2023-07-20T06:40:13;98695.72;;;22.75;76.52
76126;BME280;65174;48.138;21.002;2023-07-20T06:43:18;98700.53;;;22.44;76.91
76126;BME280;65174;48.138;21.002;2023-07-20T06:46:24;98698.66;;;22.38;77.13
76126;BME280;65174;48.138;21.002;2023-07-20T06:49:27;98697.34;;;22.76;74.95
76126;BME280;65174;48.138;21.002;2023-07-20T06:52:30;98692.47;;;22.73;74.77
76126;BME280;65174;48.138;21.002;2023-07-20T06:55:32;98705.78;;;22.65;74.90
76126;BME280;65174;48.138;21.002;2023-07-20T06:58:42;98715.03;;;22.88;74.68
76126;BME280;65174;48.138;21.002;2023-07-20T07:01:44;98703.50;;;23.30;72.92
76126;BME280;65174;48.138;21.002;2023-07-20T12:14:35;98638.69;;;29.59;40.20
76126;BME280;65174;48.138;21.002;2023-07-20T12:17:42;98635.94;;;29.54;36.75
76126;BME280;65174;48.138;21.002;2023-07-20T12:20:44;98636.97;;;29.81;42.03
76126;BME280;65174;48.138;21.002;2023-07-20T12:23:46;98620.72;;;29.95;38.22
76126;BME280;65174;48.138;21.002;2023-07-20T12:26:48;98642.53;;;30.13;36.59
76126;BME280;65174;48.138;21.002;2023-07-20T12:29:51;98666.25;;;29.98;36.78
76126;BME280;65174;48.138;21.002;2023-07-20T12:32:53;98678.75;;;27.79;43.08
76126;BME280;65174;48.138;21.002;2023-07-20T12:35:55;98670.53;;;25.93;47.18
76126;BME280;65174;48.138;21.002;2023-07-20T12:39:00;98672.41;;;25.55;49.21
76126;BME280;65174;48.138;21.002;2023-07-20T12:42:03;98677.41;;;25.18;50.13
76126;BME280;65174;48.138;21.002;2023-07-20T12:45:06;98679.25;;;25.11;51.03
76126;BME280;65174;48.138;21.002;2023-07-20T12:48:09;98679.84;;;25.20;50.84
76126;BME280;65174;48.138;21.002;2023-07-20T12:51:11;98685.44;;;24.73;52.18
76126;BME280;65174;48.138;21.002;2023-07-20T12:54:13;98692.31;;;25.00;51.74
76126;BME280;65174;48.138;21.002;2023-07-20T12:57:16;98694.19;;;24.86;50.42
76126;BME280;65174;48.138;21.002;2023-07-20T13:00:18;98691.38;;;24.49;52.71
76126;BME280;65174;48.138;21.002;2023-07-20T13:03:20;98703.25;;;25.03;53.41
76126;BME280;65174;48.138;21.002;2023-07-20T13:06:25;98698.25;;;25.46;50.61
76126;BME280;65174;48.138;21.002;2023-07-20T13:09:29;98701.44;;;25.61;49.80
76126;BME280;65174;48.138;21.002;2023-07-20T13:12:33;98695.72;;;25.95;50.77
76126;BME280;65174;48.138;21.002;2023-07-20T13:15:44;98698.63;;;25.87;50.24
76126;BME280;65174;48.138;21.002;2023-07-20T13:18:46;98704.50;;;25.89;49.82
76126;BME280;65174;48.138;21.002;2023-07-20T13:21:48;98703.84;;;26.25;50.13
76126;BME280;65174;48.138;21.002;2023-07-20T13:24:50;98707.16;;;26.45;48.84
76126;BME280;65174;48.138;21.002;2023-07-20T13:27:52;98692.81;;;26.35;48.13
76126;BME280;65174;48.138;21.002;2023-07-20T13:30:55;98708.78;;;26.64;48.49
76126;BME280;65174;48.138;21.002;2023-07-20T13:33:57;98706.59;;;26.61;49.67
76126;BME280;65174;48.138;21.002;2023-07-20T13:37:02;98705.34;;;26.39;47.83
76126;BME280;65174;48.138;21.002;2023-07-20T13:40:05;98695.22;;;26.36;47.60
76126;BME280;65174;48.138;21.002;2023-07-20T13:43:08;98707.94;;;26.46;46.43
76126;BME280;65174;48.138;21.002;2023-07-20T13:46:10;98708.28;;;26.81;46.50
76126;BME280;65174;48.138;21.002;2023-07-20T13:49:19;98707.41;;;26.62;47.43
76126;BME280;65174;48.138;21.002;2023-07-20T13:52:24;98705.47;;;26.51;46.38
76126;BME280;65174;48.138;21.002;2023-07-20T13:55:29;98704.03;;;26.98;45.78
76126;BME280;65174;48.138;21.002;2023-07-20T13:58:35;98705.34;;;27.07;45.76
76126;BME280;65174;48.138;21.002;2023-07-20T14:01:44;98703.66;;;27.12;45.31
76126;BME280;65174;48.138;21.002;2023-07-20T14:04:51;98708.50;;;27.33;44.78
76126;BME280;65174;48.138;21.002;2023-07-20T14:08:36;98704.84;;;27.16;45.80
76126;BME280;65174;48.138;21.002;2023-07-20T14:12:52;98711.06;;;27.22;45.10
76126;BME280;65174;48.138;21.002;2023-07-20T14:15:53;98704.91;;;26.67;47.29
76126;BME280;65174;48.138;21.002;2023-07-20T14:18:58;98706.59;;;26.61;46.48
76126;BME280;65174;48.138;21.002;2023-07-20T14:22:21;98709.59;;;26.90;45.62
76126;BME280;65174;48.138;21.002;2023-07-20T14:26:37;98699.66;;;27.21;46.01
76126;BME280;65174;48.138;21.002;2023-07-20T14:29:54;98704.88;;;27.28;45.35
76126;BME280;65174;48.138;21.002;2023-07-20T14:32:57;98693.50;;;27.09;45.97
76126;BME280;65174;48.138;21.002;2023-07-20T14:35:59;98703.28;;;27.27;47.29
76126;BME280;65174;48.138;21.002;2023-07-20T14:39:05;98707.09;;;27.13;49.54
76126;BME280;65174;48.138;21.002;2023-07-20T14:42:08;98707.69;;;26.97;49.47
76126;BME280;65174;48.138;21.002;2023-07-20T14:45:10;98708.94;;;26.76;49.05
76126;BME280;65174;48.138;21.002;2023-07-20T14:48:12;98711.44;;;26.89;49.70
76126;BME280;65174;48.138;21.002;2023-07-20T14:51:22;98712.53;;;27.18;49.23
76126;BME280;65174;48.138;21.002;2023-07-20T14:54:24;98709.75;;;27.31;47.83
76126;BME280;65174;48.138;21.002;2023-07-20T14:57:26;98712.63;;;27.11;48.96
76126;BME280;65174;48.138;21.002;2023-07-20T15:00:28;98713.41;;;27.30;48.24
76126;BME280;65174;48.138;21.002;2023-07-20T15:03:31;98705.63;;;26.99;49.66
76126;BME280;65174;48.138;21.002;2023-07-20T15:06:34;98718.06;;;26.98;48.47
76126;BME280;65174;48.138;21.002;2023-07-20T15:09:36;98703.19;;;26.54;49.54
76126;BME280;65174;48.138;21.002;2023-07-20T15:12:58;98716.59;;;26.84;50.94
76126;BME280;65174;48.138;21.002;2023-07-20T15:17:34;98720.13;;;26.71;49.37
76126;BME280;65174;48.138;21.002;2023-07-20T15:22:09;98729.59;;;26.86;50.02
76126;BME280;65174;48.138;21.002;2023-07-20T15:25:31;98726.75;;;26.87;48.90
76126;BME280;65174;48.138;21.002;2023-07-20T15:28:33;98729.69;;;26.97;49.21
76126;BME280;65174;48.138;21.002;2023-07-20T15:31:35;98731.81;;;27.07;49.05
76126;BME280;65174;48.138;21.002;2023-07-20T15:34:40;98726.50;;;26.89;48.77
76126;BME280;65174;48.138;21.002;2023-07-20T15:37:42;98717.47;;;26.53;50.02
76126;BME280;65174;48.138;21.002;2023-07-20T15:40:46;98726.91;;;26.18;53.24
76126;BME280;65174;48.138;21.002;2023-07-20T15:43:51;98735.53;;;26.32;53.65
76126;BME280;65174;48.138;21.002;2023-07-20T15:46:54;98738.56;;;26.35;54.03
76126;BME280;65174;48.138;21.002;2023-07-20T15:49:56;98739.47;;;26.23;55.27
76126;BME280;65174;48.138;21.002;2023-07-20T15:53:01;98756.09;;;26.30;55.06
76126;BME280;65174;48.138;21.002;2023-07-20T15:56:03;98755.44;;;26.03;55.96
76126;BME280;65174;48.138;21.002;2023-07-20T15:59:06;98757.50;;;26.01;55.80
76126;BME280;65174;48.138;21.002;2023-07-20T16:02:08;98760.19;;;25.94;56.89
76126;BME280;65174;48.138;21.002;2023-07-20T16:05:14;98754.34;;;25.86;57.00
76126;BME280;65174;48.138;21.002;2023-07-20T16:08:36;98758.16;;;25.90;55.86
76126;BME280;65174;48.138;21.002;2023-07-20T16:11:41;98759.66;;;25.79;56.50
76126;BME280;65174;48.138;21.002;2023-07-20T16:14:43;98758.44;;;25.75;55.80
76126;BME280;65174;48.138;21.002;2023-07-20T16:17:49;98757.88;;;25.67;55.22
76126;BME280;65174;48.138;21.002;2023-07-20T16:20:51;98764.63;;;25.56;54.70
76126;BME280;65174;48.138;21.002;2023-07-20T16:23:54;98764.63;;;25.56;54.32
76126;BME280;65174;48.138;21.002;2023-07-20T16:26:56;98765.88;;;25.47;54.96
76126;BME280;65174;48.138;21.002;2023-07-20T16:29:58;98766.06;;;25.52;54.85
76126;BME280;65174;48.138;21.002;2023-07-20T16:33:01;98762.44;;;25.53;54.17
76126;BME280;65174;48.138;21.002;2023-07-20T16:36:08;98772.31;;;25.64;53.82
76126;BME280;65174;48.138;21.002;2023-07-20T16:39:11;98778.91;;;25.49;53.06
76126;BME280;65174;48.138;21.002;2023-07-20T16:42:19;98781.34;;;25.37;55.18
76126;BME280;65174;48.138;21.002;2023-07-20T16:45:41;98790.31;;;25.30;54.77
76126;BME280;65174;48.138;21.002;2023-07-20T16:48:44;98786.25;;;25.14;54.04
76126;BME280;65174;48.138;21.002;2023-07-20T16:51:49;98785.06;;;24.97;54.74
76126;BME280;65174;48.138;21.002;2023-07-20T16:54:52;98782.44;;;25.03;55.45
76126;BME280;65174;48.138;21.002;2023-07-20T16:57:54;98784.28;;;24.96;55.96
76126;BME280;65174;48.138;21.002;2023-07-20T17:01:01;98788.75;;;24.83;55.68
76126;BME280;65174;48.138;21.002;2023-07-20T17:04:03;98790.75;;;24.68;56.81
76126;BME280;65174;48.138;21.002;2023-07-20T17:07:08;98796.66;;;24.57;57.26
76126;BME280;65174;48.138;21.002;2023-07-20T17:10:15;98794.41;;;24.47;57.32
76126;BME280;65174;48.138;21.002;2023-07-20T17:13:18;98807.41;;;24.42;57.64
76126;BME280;65174;48.138;21.002;2023-07-20T17:16:20;98810.41;;;24.32;57.57
76126;BME280;65174;48.138;21.002;2023-07-20T17:19:23;98800.66;;;24.20;57.58
76126;BME280;65174;48.138;21.002;2023-07-20T17:22:33;98810.19;;;24.14;57.06
76126;BME280;65174;48.138;21.002;2023-07-20T17:25:35;98811.19;;;24.13;56.84
76126;BME280;65174;48.138;21.002;2023-07-20T17:28:37;98813.41;;;24.10;57.68
76126;BME280;65174;48.138;21.002;2023-07-20T17:31:43;98818.00;;;23.95;58.10
76126;BME280;65174;48.138;21.002;2023-07-20T17:34:48;98821.22;;;23.84;58.47
76126;BME280;65174;48.138;21.002;2023-07-20T17:37:50;98816.06;;;23.69;58.98
76126;BME280;65174;48.138;21.002;2023-07-20T17:41:16;98819.47;;;23.56;59.53
76126;BME280;65174;48.138;21.002;2023-07-20T17:45:52;98824.47;;;23.45;59.98
76126;BME280;65174;48.138;21.002;2023-07-20T17:50:08;98824.44;;;23.38;59.42
76126;BME280;65174;48.138;21.002;2023-07-20T17:53:13;98829.59;;;23.25;60.30
76126;BME280;65174;48.138;21.002;2023-07-20T17:56:16;98828.91;;;23.17;61.00
76126;BME280;65174;48.138;21.002;2023-07-20T17:59:18;98832.88;;;23.00;61.54
76126;BME280;65174;48.138;21.002;2023-07-20T18:02:20;98833.88;;;22.99;62.45
76126;BME280;65174;48.138;21.002;2023-07-20T18:05:27;98833.38;;;22.88;63.24
76126;BME280;65174;48.138;21.002;2023-07-20T18:08:29;98831.13;;;22.85;63.59
76126;BME280;65174;48.138;21.002;2023-07-20T18:11:30;98835.84;;;22.69;64.02
76126;BME280;65174;48.138;21.002;2023-07-20T18:14:39;98836.41;;;22.64;64.55
76126;BME280;65174;48.138;21.002;2023-07-20T18:17:41;98843.25;;;22.59;64.56
76126;BME280;65174;48.138;21.002;2023-07-20T18:20:43;98850.06;;;22.53;64.76
76126;BME280;65174;48.138;21.002;2023-07-20T18:23:47;98854.50;;;22.53;65.09
76126;BME280;65174;48.138;21.002;2023-07-20T18:26:49;98861.88;;;22.43;65.19
76126;BME280;65174;48.138;21.002;2023-07-20T18:29:54;98864.63;;;22.35;65.99
76126;BME280;65174;48.138;21.002;2023-07-20T18:33:01;98866.00;;;22.31;65.49
76126;BME280;65174;48.138;21.002;2023-07-20T18:36:03;98865.75;;;22.26;65.96
76126;BME280;65174;48.138;21.002;2023-07-20T18:39:05;98883.31;;;22.25;66.15
76126;BME280;65174;48.138;21.002;2023-07-20T18:42:07;98884.75;;;22.28;66.75
76126;BME280;65174;48.138;21.002;2023-07-20T18:45:09;98887.88;;;22.17;67.23
76126;BME280;65174;48.138;21.002;2023-07-20T18:48:31;98899.31;;;22.09;67.25
76126;BME280;65174;48.138;21.002;2023-07-20T18:51:54;98904.47;;;22.02;67.46
76126;BME280;65174;48.138;21.002;2023-07-20T18:54:56;98907.41;;;21.93;67.55
76126;BME280;65174;48.138;21.002;2023-07-20T18:57:59;98911.34;;;21.89;66.83
76126;BME280;65174;48.138;21.002;2023-07-20T19:01:01;98914.66;;;21.91;67.77
76126;BME280;65174;48.138;21.002;2023-07-20T19:04:04;98920.25;;;21.88;67.80
76126;BME280;65174;48.138;21.002;2023-07-20T19:07:06;98917.00;;;21.86;67.20
76126;BME280;65174;48.138;21.002;2023-07-20T19:10:09;98927.50;;;21.86;67.21
76126;BME280;65174;48.138;21.002;2023-07-20T19:13:14;98920.84;;;21.75;67.54
76126;BME280;65174;48.138;21.002;2023-07-20T19:16:17;98927.56;;;21.63;68.39
76126;BME280;65174;48.138;21.002;2023-07-20T19:19:19;98923.66;;;21.59;68.66
76126;BME280;65174;48.138;21.002;2023-07-20T19:22:22;98926.44;;;21.58;68.94
76126;BME280;65174;48.138;21.002;2023-07-20T19:25:24;98929.69;;;21.45;69.99
76126;BME280;65174;48.138;21.002;2023-07-20T19:28:27;98932.81;;;21.49;69.36
76126;BME280;65174;48.138;21.002;2023-07-20T19:31:29;98924.09;;;21.33;70.46
76126;BME280;65174;48.138;21.002;2023-07-20T19:34:31;98937.84;;;21.35;71.01
76126;BME280;65174;48.138;21.002;2023-07-20T19:37:34;98936.47;;;21.25;72.06
76126;BME280;65174;48.138;21.002;2023-07-20T19:40:36;98933.72;;;21.18;72.25
76126;BME280;65174;48.138;21.002;2023-07-20T19:43:56;98933.72;;;21.18;72.25
76126;BME280;65174;48.138;21.002;2023-07-20T19:46:58;98933.81;;;21.10;72.65
76126;BME280;65174;48.138;21.002;2023-07-20T19:50:01;98942.31;;;21.12;72.49
76126;BME280;65174;48.138;21.002;2023-07-20T19:53:08;98952.81;;;21.12;72.07
76126;BME280;65174;48.138;21.002;2023-07-20T19:56:13;98940.25;;;21.00;72.89
76126;BME280;65174;48.138;21.002;2023-07-20T19:59:18;98949.91;;;20.99;73.53
76126;BME280;65174;48.138;21.002;2023-07-20T20:02:20;98948.81;;;20.94;73.67
76126;BME280;65174;48.138;21.002;2023-07-20T20:05:22;98960.25;;;21.01;73.00
76126;BME280;65174;48.138;21.002;2023-07-20T20:08:27;98960.66;;;21.12;72.20
76126;BME280;65174;48.138;21.002;2023-07-20T20:11:31;98962.94;;;21.15;71.91
76126;BME280;65174;48.138;21.002;2023-07-20T20:14:37;98958.50;;;21.16;72.05
76126;BME280;65174;48.138;21.002;2023-07-20T20:17:39;98967.84;;;21.18;72.11
76126;BME280;65174;48.138;21.002;2023-07-20T20:20:44;98958.31;;;21.03;73.31
76126;BME280;65174;48.138;21.002;2023-07-20T20:23:47;98956.06;;;20.92;73.85
76126;BME280;65174;48.138;21.002;2023-07-20T20:27:06;98965.38;;;20.94;73.67
76126;BME280;65174;48.138;21.002;2023-07-20T20:30:09;98969.63;;;20.73;73.84
76126;BME280;65174;48.138;21.002;2023-07-20T20:33:11;98972.69;;;20.76;73.98
76126;BME280;65174;48.138;21.002;2023-07-20T20:36:13;98962.91;;;20.70;74.21
76126;BME280;65174;48.138;21.002;2023-07-20T20:39:17;98968.59;;;20.51;75.04
76126;BME280;65174;48.138;21.002;2023-07-20T20:42:20;98964.47;;;20.56;74.71
76126;BME280;65174;48.138;21.002;2023-07-20T20:45:22;98973.44;;;20.62;74.29
76126;BME280;65174;48.138;21.002;2023-07-20T20:48:24;98979.50;;;20.63;74.03
76126;BME280;65174;48.138;21.002;2023-07-20T20:51:28;98978.19;;;20.67;74.06
76126;BME280;65174;48.138;21.002;2023-07-20T20:54:30;98985.41;;;20.65;74.06
76126;BME280;65174;48.138;21.002;2023-07-20T20:57:40;98985.41;;;20.65;74.06
76126;BME280;65174;48.138;21.002;2023-07-20T21:00:43;98995.19;;;20.71;73.75
76126;BME280;65174;48.138;21.002;2023-07-20T21:04:35;64582.16;;;-140.13;100.00
76126;BME280;65174;48.138;21.002;2023-07-20T21:07:38;98991.75;;;20.70;73.89
76126;BME280;65174;48.138;21.002;2023-07-20T21:10:43;98996.47;;;20.75;73.65
76126;BME280;65174;48.138;21.002;2023-07-20T21:13:45;98996.41;;;20.60;73.87
76126;BME280;65174;48.138;21.002;2023-07-20T21:16:47;98997.38;;;20.59;74.19
76126;BME280;65174;48.138;21.002;2023-07-20T21:19:49;99002.09;;;20.64;74.33
76126;BME280;65174;48.138;21.002;2023-07-20T21:22:52;99009.31;;;20.62;74.05
76126;BME280;65174;48.138;21.002;2023-07-20T21:26:25;64582.16;;;-140.13;100.00
76126;BME280;65174;48.138;21.002;2023-07-20T21:29:28;98999.66;;;20.62;74.73
76126;BME280;65174;48.138;21.002;2023-07-20T21:32:30;99005.34;;;20.66;74.80
76126;BME280;65174;48.138;21.002;2023-07-20T21:35:36;99008.66;;;20.59;74.91
76126;BME280;65174;48.138;21.002;2023-07-20T21:39:09;99005.03;;;20.69;74.29
76126;BME280;65174;48.138;21.002;2023-07-20T21:42:17;99005.03;;;20.69;74.29
76126;BME280;65174;48.138;21.002;2023-07-20T21:45:19;99009.81;;;20.57;74.66
76126;BME280;65174;48.138;21.002;2023-07-20T21:48:23;99004.94;;;20.54;74.89
76126;BME280;65174;48.138;21.002;2023-07-20T21:52:25;64582.16;;;-140.13;100.00